Time;durP1;ratioP1;P1;durP2;ratioP2;P2;SDS_P1;SDS_P2;PMS_P1;PMS_P2;Temp;Humidity;BMP_temperature;BMP_pressure;BME280_temperature;BME280_humidity;BME280_pressure;Samples;Min_cycle;Max_cycle;Signal;HPM_P1;HPM_P2
2023/07/03 00:01:49;;;;;;;8.30;2.35;;;15.80;99.90;;;;;;4997527;28;20117;-73
2023/07/03 00:04:15;;;;;;;4.53;2.10;;;15.80;99.90;;;;;;4985391;28;20133;-73
2023/07/03 00:06:40;;;;;;;8.90;1.55;;;15.80;99.90;;;;;;4967886;28;20445;-73
2023/07/03 00:09:06;;;;;;;10.65;1.77;;;15.80;99.90;;;;;;4982454;28;20038;-73
2023/07/03 00:11:32;;;;;;;3.63;1.83;;;15.80;99.90;;;;;;4985728;28;20046;-73
2023/07/03 00:13:58;;;;;;;3.92;1.27;;;15.80;99.90;;;;;;5004856;28;20057;-73
2023/07/03 00:16:24;;;;;;;4.03;1.42;;;15.80;99.90;;;;;;5004443;28;20079;-73
2023/07/03 00:18:49;;;;;;;3.83;1.77;;;15.80;99.90;;;;;;5003408;28;20060;-73
2023/07/03 00:21:15;;;;;;;5.95;1.27;;;15.80;99.90;;;;;;5004486;28;20504;-73
2023/07/03 00:23:41;;;;;;;2.75;2.05;;;15.80;99.90;;;;;;5002684;28;20049;-73
2023/07/03 00:26:06;;;;;;;4.03;1.52;;;15.80;99.90;;;;;;5004211;28;20034;-73
2023/07/03 00:28:32;;;;;;;3.13;1.30;;;15.80;99.90;;;;;;5004429;28;20046;-73
2023/07/03 00:30:57;;;;;;;5.30;1.40;;;15.80;99.90;;;;;;5004813;28;20141;-73
2023/07/03 00:33:23;;;;;;;4.85;1.40;;;15.80;99.90;;;;;;4986616;28;20050;-73
2023/07/03 00:35:49;;;;;;;6.38;1.63;;;15.80;99.90;;;;;;5005109;28;20038;-72
2023/07/03 00:38:14;;;;;;;3.85;1.42;;;15.80;99.90;;;;;;5003084;28;20049;-73
2023/07/03 00:40:40;;;;;;;4.82;1.38;;;15.80;99.90;;;;;;5004169;28;20049;-72
2023/07/03 00:43:05;;;;;;;3.92;1.40;;;15.80;99.90;;;;;;5002779;28;20064;-73
2023/07/03 00:45:32;;;;;;;3.92;1.20;;;15.80;99.90;;;;;;5004270;28;20165;-73
2023/07/03 00:47:58;;;;;;;2.08;1.13;;;15.80;99.90;;;;;;4987310;28;20425;-72
2023/07/03 00:50:25;;;;;;;3.03;1.33;;;15.80;99.90;;;;;;5002418;28;20505;-73
2023/07/03 00:52:56;;;;;;;7.35;1.02;;;15.80;99.90;;;;;;5002280;28;20041;-73
2023/07/03 00:55:22;;;;;;;5.97;1.70;;;15.80;99.90;;;;;;5003780;28;20050;-73
2023/07/03 00:57:49;;;;;;;1.52;0.80;;;15.80;99.90;;;;;;4986818;28;20484;-72
2023/07/03 01:00:15;;;;;;;2.47;1.90;;;15.80;99.90;;;;;;5003087;28;20532;-73
2023/07/03 01:03:13;;;;;;;8.38;1.23;;;15.80;99.90;;;;;;4989899;28;20073;-73
2023/07/03 01:08:27;;;;;;;2.55;1.50;;;15.80;99.90;;;;;;5022121;23;20064;-73
2023/07/03 01:10:53;;;;;;;2.83;1.05;;;15.80;99.90;;;;;;5016781;28;20050;-73
2023/07/03 01:13:21;;;;;;;2.72;1.40;;;15.80;99.90;;;;;;5018058;28;20046;-72
2023/07/03 01:15:48;;;;;;;2.75;0.95;;;15.80;99.90;;;;;;5023894;28;20110;-73
2023/07/03 01:18:15;;;;;;;1.58;1.02;;;15.70;99.90;;;;;;5023329;28;20044;-72
2023/07/03 01:20:48;;;;;;;3.80;0.98;;;15.70;99.90;;;;;;5023352;28;20484;-73
2023/07/03 01:23:36;;;;;;;3.72;1.10;;;15.70;99.90;;;;;;5022555;28;20081;-73
2023/07/03 01:26:04;;;;;;;3.72;1.38;;;15.70;99.90;;;;;;5005971;28;20110;-73
2023/07/03 01:28:32;;;;;;;2.08;1.25;;;15.60;99.90;;;;;;5023792;28;20046;-73
2023/07/03 01:30:59;;;;;;;5.60;1.02;;;15.50;99.90;;;;;;5024060;28;20037;-73
2023/07/03 01:33:32;;;;;;;3.97;0.82;;;15.50;99.90;;;;;;5023982;28;20053;-73
2023/07/03 01:35:59;;;;;;;2.83;0.93;;;15.50;99.90;;;;;;5024147;28;20050;-73
2023/07/03 01:38:26;;;;;;;3.42;1.13;;;15.50;99.90;;;;;;5005049;28;20160;-73
2023/07/03 01:40:58;;;;;;;6.38;2.03;;;15.40;99.90;;;;;;5023971;28;20584;-73
2023/07/03 01:43:24;;;;;;;4.38;1.33;;;15.40;99.90;;;;;;5023276;28;20510;-73
2023/07/03 01:45:50;;;;;;;5.28;0.75;;;15.30;99.90;;;;;;5005583;28;20050;-73
2023/07/03 01:48:17;;;;;;;1.42;0.75;;;15.30;99.90;;;;;;5005644;28;20042;-72
2023/07/03 01:50:45;;;;;;;3.53;1.05;;;15.30;99.90;;;;;;5005608;28;20139;-73
2023/07/03 01:53:25;;;;;;;3.00;1.50;;;15.30;99.90;;;;;;5022245;28;20057;-73
2023/07/03 01:56:00;;;;;;;2.38;1.85;;;15.20;99.90;;;;;;5005880;28;20735;-73
2023/07/03 01:58:48;;;;;;;2.53;1.50;;;15.20;99.90;;;;;;5005815;28;20053;-72
2023/07/03 02:01:41;;;;;;;1.30;0.85;;;15.20;99.90;;;;;;4987045;28;20053;-72
2023/07/03 02:04:47;;;;;;;3.38;1.38;;;15.10;99.90;;;;;;4988982;28;20065;-72
2023/07/03 02:07:14;;;;;;;6.65;1.23;;;15.10;99.90;;;;;;4976098;28;20054;-73
2023/07/03 02:09:40;;;;;;;7.22;1.50;;;15.10;99.90;;;;;;5006026;28;20081;-72
2023/07/03 02:12:06;;;;;;;7.88;1.52;;;15.10;99.90;;;;;;5005705;28;20401;-73
2023/07/03 02:14:34;;;;;;;5.03;1.02;;;15.00;99.90;;;;;;5009329;28;20064;-73
2023/07/03 02:17:01;;;;;;;5.50;1.73;;;15.00;99.90;;;;;;5008996;28;20122;-72
2023/07/03 02:19:28;;;;;;;5.88;1.10;;;15.00;99.90;;;;;;5026822;28;20561;-72
2023/07/03 02:21:58;;;;;;;4.82;1.23;;;15.00;99.90;;;;;;4976616;28;20041;-72
2023/07/03 02:24:24;;;;;;;8.45;1.17;;;15.00;99.90;;;;;;5007749;28;20148;-72
2023/07/03 02:26:50;;;;;;;2.42;0.82;;;15.00;99.90;;;;;;5008722;28;20055;-72
2023/07/03 02:29:16;;;;;;;5.15;1.58;;;15.00;99.90;;;;;;5026076;28;20041;-72
2023/07/03 02:31:42;;;;;;;6.35;1.08;;;14.90;99.90;;;;;;5008764;28;20056;-72
2023/07/03 02:34:08;;;;;;;5.60;1.63;;;14.90;99.90;;;;;;4991895;28;20044;-72
2023/07/03 02:36:35;;;;;;;5.03;1.20;;;14.90;99.90;;;;;;5025992;28;20538;-72
2023/07/03 02:39:07;;;;;;;5.40;1.63;;;14.90;99.90;;;;;;5007359;28;20041;-73
2023/07/03 02:41:33;;;;;;;2.78;0.80;;;14.80;99.90;;;;;;5025775;28;20072;-72
2023/07/03 02:43:59;;;;;;;4.93;1.17;;;14.80;99.90;;;;;;5007160;28;20051;-72
2023/07/03 02:46:25;;;;;;;6.00;1.15;;;14.80;99.90;;;;;;4991920;28;20075;-72
2023/07/03 02:48:50;;;;;;;1.52;1.15;;;14.80;99.90;;;;;;5008368;28;20082;-72
2023/07/03 02:51:16;;;;;;;4.38;1.02;;;14.80;99.90;;;;;;4980803;28;20045;-72
2023/07/03 02:53:42;;;;;;;5.90;1.05;;;14.80;99.90;;;;;;5025559;28;20042;-72
2023/07/03 02:56:09;;;;;;;4.28;1.30;;;14.70;99.90;;;;;;5025534;28;20047;-72
2023/07/03 02:58:35;;;;;;;8.73;1.52;;;14.70;99.90;;;;;;5025846;28;20092;-72
2023/07/03 03:01:01;;;;;;;5.07;1.42;;;14.70;99.90;;;;;;5024763;28;20125;-73
2023/07/03 03:03:27;;;;;;;7.40;0.95;;;14.70;99.90;;;;;;5005335;28;20050;-72
2023/07/03 03:05:53;;;;;;;10.45;1.42;;;14.70;99.90;;;;;;5004330;28;20041;-72
2023/07/03 03:08:21;;;;;;;3.50;0.90;;;14.70;99.90;;;;;;5006689;28;20622;-72
2023/07/03 03:10:46;;;;;;;9.43;1.70;;;14.70;99.90;;;;;;5007822;28;20048;-73
2023/07/03 03:13:12;;;;;;;4.28;1.15;;;14.70;99.90;;;;;;5007842;28;20045;-73
2023/07/03 03:15:37;;;;;;;5.22;1.60;;;14.60;99.90;;;;;;5025851;28;20132;-72
2023/07/03 03:18:04;;;;;;;4.25;0.90;;;14.60;99.90;;;;;;5007562;28;20041;-73
2023/07/03 03:20:29;;;;;;;2.60;1.02;;;14.60;99.90;;;;;;5025308;28;20561;-73
2023/07/03 03:22:55;;;;;;;4.38;1.67;;;14.50;99.90;;;;;;5007272;28;20053;-72
2023/07/03 03:25:20;;;;;;;5.00;0.93;;;14.50;99.90;;;;;;5025094;28;20092;-73
2023/07/03 03:27:46;;;;;;;2.50;0.90;;;14.50;99.90;;;;;;5025371;28;20045;-73
2023/07/03 03:30:12;;;;;;;4.13;1.00;;;14.50;99.90;;;;;;5007203;28;20482;-72
2023/07/03 03:32:38;;;;;;;4.68;1.00;;;14.50;99.90;;;;;;4991322;28;20053;-72
2023/07/03 03:35:05;;;;;;;3.97;0.90;;;14.50;99.90;;;;;;5007354;28;20084;-72
2023/07/03 03:37:31;;;;;;;5.82;1.38;;;14.50;99.90;;;;;;5024283;28;20095;-72
2023/07/03 03:39:56;;;;;;;2.75;0.95;;;14.40;99.90;;;;;;5007954;28;20085;-72
2023/07/03 03:42:22;;;;;;;2.60;0.70;;;14.40;99.90;;;;;;5006748;28;20059;-72
2023/07/03 03:44:48;;;;;;;6.38;1.27;;;14.40;99.90;;;;;;5024509;28;20068;-72
2023/07/03 03:47:13;;;;;;;5.13;2.13;;;14.40;99.90;;;;;;5007095;28;20133;-72
2023/07/03 03:49:39;;;;;;;3.80;1.65;;;14.40;99.90;;;;;;5024421;28;20129;-72
2023/07/03 03:52:05;;;;;;;4.07;0.93;;;14.30;99.90;;;;;;5024514;28;20047;-72
2023/07/03 03:54:31;;;;;;;9.23;1.67;;;14.40;99.90;;;;;;5024263;28;20072;-73
2023/07/03 03:56:57;;;;;;;3.83;1.60;;;14.40;99.90;;;;;;5015959;28;20038;-72
2023/07/03 03:59:23;;;;;;;5.22;1.90;;;14.40;99.90;;;;;;5005457;28;20041;-72
2023/07/03 04:01:49;;;;;;;6.45;1.33;;;14.50;99.90;;;;;;5016022;28;20077;-72
2023/07/03 04:04:15;;;;;;;5.88;1.00;;;14.40;99.90;;;;;;5003824;28;20053;-72
2023/07/03 04:06:41;;;;;;;6.85;1.48;;;14.50;99.90;;;;;;5016447;28;20050;-72
2023/07/03 04:09:07;;;;;;;3.13;1.00;;;14.50;99.90;;;;;;5022993;28;20037;-72
2023/07/03 04:11:34;;;;;;;2.72;1.02;;;14.60;99.90;;;;;;5024359;28;20052;-72
2023/07/03 04:14:00;;;;;;;2.67;1.58;;;14.60;99.90;;;;;;5024393;28;20427;-73
2023/07/03 04:16:28;;;;;;;4.13;1.45;;;14.60;99.90;;;;;;5023300;28;20037;-72
2023/07/03 04:18:54;;;;;;;7.93;1.50;;;14.70;99.90;;;;;;4996245;28;20053;-72
2023/07/03 04:21:20;;;;;;;2.83;0.90;;;14.80;99.90;;;;;;5024191;28;20041;-72
2023/07/03 04:23:47;;;;;;;4.07;1.15;;;14.80;99.90;;;;;;5005418;28;20092;-72
2023/07/03 04:26:12;;;;;;;5.45;1.20;;;14.90;99.90;;;;;;5006132;28;20492;-72
2023/07/03 04:28:38;;;;;;;1.60;1.33;;;14.90;99.90;;;;;;5006669;28;20059;-72
2023/07/03 04:31:04;;;;;;;3.50;1.00;;;14.90;99.90;;;;;;4989883;28;20077;-72
2023/07/03 04:33:29;;;;;;;4.40;0.90;;;15.00;99.90;;;;;;5006976;28;20124;-73
2023/07/03 04:35:55;;;;;;;3.40;0.88;;;15.00;99.90;;;;;;5024458;28;20384;-72
2023/07/03 04:38:23;;;;;;;2.97;0.80;;;15.00;99.90;;;;;;5005485;28;20046;-72
2023/07/03 04:40:51;;;;;;;6.68;2.38;;;15.00;99.90;;;;;;5006456;28;20045;-72
2023/07/03 04:43:17;;;;;;;4.85;1.10;;;15.10;99.90;;;;;;5017117;28;20084;-73
2023/07/03 04:45:48;;;;;;;7.43;1.45;;;15.10;99.90;;;;;;5014280;28;20045;-74
2023/07/03 04:48:15;;;;;;;4.00;1.63;;;15.20;99.90;;;;;;5023579;28;20038;-72
2023/07/03 04:50:41;;;;;;;3.80;1.00;;;15.20;99.90;;;;;;5023653;28;20046;-73
2023/07/03 04:53:06;;;;;;;3.17;1.30;;;15.20;99.90;;;;;;5004987;28;20439;-73
2023/07/03 04:55:33;;;;;;;5.78;1.58;;;15.10;99.90;;;;;;5024024;28;20041;-73
2023/07/03 04:58:00;;;;;;;5.28;1.77;;;15.10;99.90;;;;;;5006512;28;20492;-73
2023/07/03 05:00:27;;;;;;;3.15;1.25;;;15.00;99.90;;;;;;5023971;28;20768;-72
2023/07/03 05:02:57;;;;;;;2.88;0.90;;;15.00;99.90;;;;;;5018773;28;20053;-73
2023/07/03 05:05:24;;;;;;;6.95;1.25;;;14.90;99.90;;;;;;5004053;28;20034;-72
2023/07/03 05:07:49;;;;;;;1.23;0.93;;;14.90;99.90;;;;;;4998809;28;20053;-73
2023/07/03 05:10:17;;;;;;;3.75;0.70;;;14.90;99.90;;;;;;5002507;28;20480;-72
2023/07/03 05:12:44;;;;;;;5.22;0.70;;;14.90;99.90;;;;;;5003948;28;20038;-73
2023/07/03 05:15:11;;;;;;;4.07;1.35;;;14.90;99.90;;;;;;5017195;28;20038;-73
2023/07/03 05:17:38;;;;;;;2.65;0.77;;;14.90;99.90;;;;;;4999503;28;20140;-73
2023/07/03 05:20:14;;;;;;;3.75;1.20;;;15.00;99.90;;;;;;5014115;28;20441;-73
2023/07/03 05:22:42;;;;;;;1.80;0.52;;;15.00;99.90;;;;;;5016466;28;20515;-74
2023/07/03 05:25:10;;;;;;;1.98;0.63;;;15.10;99.90;;;;;;5000620;28;20064;-73
2023/07/03 05:27:36;;;;;;;2.15;0.93;;;15.10;99.90;;;;;;5018546;28;20033;-72
2023/07/03 05:30:03;;;;;;;2.20;1.10;;;15.10;99.90;;;;;;5001844;28;20049;-73
2023/07/03 05:32:29;;;;;;;2.15;0.60;;;15.20;99.90;;;;;;5003138;28;20041;-73
2023/07/03 05:34:55;;;;;;;2.85;1.50;;;15.30;99.90;;;;;;5001936;28;20045;-73
2023/07/03 05:37:21;;;;;;;5.05;0.82;;;15.30;99.90;;;;;;5007240;28;20045;-73
2023/07/03 05:39:49;;;;;;;1.08;0.80;;;15.40;99.90;;;;;;4978407;28;20056;-73
2023/07/03 05:42:16;;;;;;;1.08;0.98;;;15.50;99.90;;;;;;4998369;28;20116;-73
2023/07/03 05:44:43;;;;;;;3.90;0.85;;;15.60;99.90;;;;;;5004325;28;20119;-74
2023/07/03 05:47:09;;;;;;;5.25;1.15;;;15.70;99.90;;;;;;5008736;28;20120;-73
2023/07/03 05:49:34;;;;;;;7.05;0.85;;;15.70;99.90;;;;;;5016027;28;20633;-72
2023/07/03 05:52:00;;;;;;;4.50;1.65;;;15.70;99.90;;;;;;5025667;28;20120;-73
2023/07/03 05:54:25;;;;;;;1.85;0.85;;;15.60;99.90;;;;;;5009542;28;20616;-73
2023/07/03 05:56:57;;;;;;;3.47;1.73;;;15.50;99.90;;;;;;5008578;28;20049;-73
2023/07/03 05:59:23;;;;;;;;;;;15.40;99.90;;;;;;4995915;28;20342;-72
2023/07/03 06:01:49;;;;;;;2.28;0.75;;;15.40;99.90;;;;;;4982380;28;20134;-70
2023/07/03 06:04:16;;;;;;;6.82;1.38;;;15.30;99.90;;;;;;5025095;28;20095;-70
2023/07/03 06:06:41;;;;;;;2.25;1.02;;;15.30;99.90;;;;;;5024282;28;20045;-70
2023/07/03 06:09:07;;;;;;;5.65;0.77;;;15.30;99.90;;;;;;5024351;28;20054;-70
2023/07/03 06:11:33;;;;;;;3.03;0.90;;;15.30;99.90;;;;;;4990590;28;20037;-70
2023/07/03 06:13:58;;;;;;;1.77;0.63;;;15.30;99.90;;;;;;5006697;28;20411;-70
2023/07/03 06:16:27;;;;;;;2.78;0.63;;;15.20;99.90;;;;;;5007214;28;20061;-70
2023/07/03 06:18:54;;;;;;;2.83;0.98;;;15.20;99.90;;;;;;5007566;28;20133;-70
2023/07/03 06:21:20;;;;;;;1.83;0.65;;;15.30;99.90;;;;;;5007091;28;20492;-70
2023/07/03 06:23:45;;;;;;;7.07;1.67;;;15.30;99.90;;;;;;5006725;28;20071;-70
2023/07/03 06:26:11;;;;;;;4.80;1.08;;;15.30;99.90;;;;;;5006642;28;20080;-70
2023/07/03 06:28:37;;;;;;;3.17;0.73;;;15.30;99.90;;;;;;4999004;28;20099;-73
2023/07/03 06:31:02;;;;;;;11.57;1.77;;;15.30;99.90;;;;;;5024734;28;20112;-72
2023/07/03 06:33:28;;;;;;;0.93;0.80;;;15.30;99.90;;;;;;5000645;28;20081;-72
2023/07/03 06:35:54;;;;;;;4.63;1.15;;;15.40;99.90;;;;;;5015107;28;20042;-72
2023/07/03 06:38:20;;;;;;;1.30;0.65;;;15.40;99.90;;;;;;5005227;28;20092;-72
2023/07/03 06:40:56;;;;;;;2.80;0.80;;;15.40;99.90;;;;;;5021264;28;20079;-72
2023/07/03 06:43:21;;;;;;;1.58;0.63;;;15.40;99.90;;;;;;5016842;28;20353;-73
2023/07/03 06:45:47;;;;;;;2.17;0.70;;;15.50;99.90;;;;;;5011515;28;20426;-72
2023/07/03 06:48:12;;;;;;;3.70;0.90;;;15.50;99.90;;;;;;4974526;28;20037;-72
2023/07/03 06:50:38;;;;;;;1.10;0.80;;;15.60;99.90;;;;;;5007351;28;20049;-72
2023/07/03 06:53:03;;;;;;;3.45;0.60;;;15.70;99.90;;;;;;5005956;28;20041;-73
2023/07/03 06:55:29;;;;;;;4.35;1.20;;;15.80;99.90;;;;;;5007905;28;20514;-74
2023/07/03 06:57:55;;;;;;;2.88;0.93;;;15.90;99.90;;;;;;5007315;28;20044;-72
2023/07/03 07:00:20;;;;;;;2.28;0.70;;;15.90;99.90;;;;;;5006407;28;20124;-72
2023/07/03 07:02:46;;;;;;;2.95;0.93;;;16.00;99.90;;;;;;5024458;28;20076;-72
2023/07/03 07:05:12;;;;;;;4.75;1.60;;;16.00;99.90;;;;;;5006697;28;20096;-72
2023/07/03 07:07:37;;;;;;;3.75;1.25;;;16.10;99.90;;;;;;5023051;28;20057;-72
2023/07/03 07:10:03;;;;;;;3.30;0.80;;;16.10;99.90;;;;;;5006278;28;20051;-73
2023/07/03 07:12:29;;;;;;;1.85;1.02;;;16.00;99.90;;;;;;5025251;28;20120;-72
2023/07/03 07:14:55;;;;;;;4.43;1.30;;;16.00;99.90;;;;;;5025005;28;20073;-72
2023/07/03 07:17:21;;;;;;;4.47;0.93;;;16.00;99.90;;;;;;5005990;28;20092;-73
2023/07/03 07:19:47;;;;;;;3.97;0.63;;;16.00;99.90;;;;;;5024757;28;20124;-71
2023/07/03 07:22:13;;;;;;;5.75;1.00;;;16.10;99.90;;;;;;4982738;28;20128;-72
2023/07/03 07:24:38;;;;;;;0.40;0.35;;;16.10;99.90;;;;;;4986847;28;20505;-72
2023/07/03 07:27:05;;;;;;;9.32;1.27;;;16.20;99.90;;;;;;5004230;28;20038;-72
2023/07/03 07:29:31;;;;;;;5.38;0.70;;;16.20;99.90;;;;;;5004511;28;20099;-73
2023/07/03 07:31:57;;;;;;;2.90;0.93;;;16.20;99.90;;;;;;5008335;28;20049;-74
2023/07/03 07:34:23;;;;;;;2.25;0.55;;;16.20;99.90;;;;;;5023953;28;20041;-72
2023/07/03 07:36:49;;;;;;;0.95;0.77;;;16.30;99.90;;;;;;4989022;28;20056;-72
2023/07/03 07:39:17;;;;;;;2.83;2.08;;;16.30;99.90;;;;;;5006301;28;20041;-72
2023/07/03 07:41:44;;;;;;;0.50;0.47;;;16.40;99.90;;;;;;5006173;28;20407;-72
2023/07/03 07:44:10;;;;;;;1.63;0.70;;;16.40;99.90;;;;;;5023710;28;20523;-72
2023/07/03 07:46:36;;;;;;;2.25;0.73;;;16.40;99.90;;;;;;5023702;28;20081;-72
2023/07/03 07:49:02;;;;;;;1.50;0.60;;;16.50;99.90;;;;;;5005363;28;20064;-72
2023/07/03 07:51:29;;;;;;;0.88;0.82;;;16.50;99.90;;;;;;5006084;28;20380;-73
2023/07/03 07:53:57;;;;;;;2.40;0.50;;;16.50;99.90;;;;;;5023973;28;20037;-73
2023/07/03 07:56:24;;;;;;;2.72;0.60;;;16.50;99.90;;;;;;5017857;28;20034;-73
2023/07/03 07:58:50;;;;;;;5.85;1.20;;;16.50;99.90;;;;;;5003259;28;20061;-73
2023/07/03 08:01:16;;;;;;;2.05;1.13;;;16.50;99.90;;;;;;4988738;28;20041;-72
2023/07/03 08:03:43;;;;;;;3.72;0.73;;;16.50;99.90;;;;;;5023406;28;20168;-73
2023/07/03 08:06:10;;;;;;;5.60;0.95;;;16.50;99.90;;;;;;5005471;28;20044;-71
2023/07/03 08:08:36;;;;;;;3.15;0.85;;;16.50;99.90;;;;;;5022699;28;20049;-72
2023/07/03 08:11:04;;;;;;;4.22;0.63;;;16.60;99.90;;;;;;5022887;28;20406;-72
2023/07/03 08:13:32;;;;;;;1.92;1.15;;;16.70;99.90;;;;;;5022585;28;20084;-73
2023/07/03 08:15:58;;;;;;;1.00;0.75;;;16.60;99.90;;;;;;5019150;28;20439;-73
2023/07/03 08:18:24;;;;;;;3.50;0.88;;;16.60;99.90;;;;;;5017387;28;20041;-71
2023/07/03 08:20:50;;;;;;;0.93;0.60;;;16.70;99.90;;;;;;5007817;28;20041;-73
2023/07/03 08:23:17;;;;;;;1.23;0.75;;;16.60;99.90;;;;;;5021817;28;20322;-72
2023/07/03 08:25:43;;;;;;;1.92;0.65;;;16.60;99.90;;;;;;5022964;28;20060;-73
2023/07/03 08:28:09;;;;;;;2.78;0.70;;;16.60;99.90;;;;;;5022369;28;20037;-72
2023/07/03 08:30:36;;;;;;;4.82;1.45;;;16.70;99.90;;;;;;5004051;28;20458;-72
2023/07/03 08:33:02;;;;;;;3.05;0.88;;;16.70;99.90;;;;;;5003684;28;20133;-73
2023/07/03 08:35:27;;;;;;;1.52;0.70;;;16.70;99.90;;;;;;4986415;28;20131;-72
2023/07/03 08:37:53;;;;;;;5.82;1.00;;;16.60;99.90;;;;;;5009665;28;20476;-72
2023/07/03 08:40:21;;;;;;;1.50;1.40;;;16.60;99.90;;;;;;4987913;28;20045;-73
2023/07/03 08:42:54;;;;;;;1.65;0.70;;;16.60;99.90;;;;;;5002818;28;20128;-73
2023/07/03 08:45:25;;;;;;;3.63;1.13;;;16.60;99.90;;;;;;4993317;28;20053;-73
2023/07/03 08:47:53;;;;;;;5.05;1.17;;;16.70;99.90;;;;;;5018039;28;20050;-73
2023/07/03 08:50:21;;;;;;;2.63;0.80;;;16.80;99.90;;;;;;5023030;28;20037;-73
2023/07/03 08:53:20;;;;;;;1.23;1.02;;;16.80;99.90;;;;;;5013678;28;20057;-71
2023/07/03 08:55:52;;;;;;;3.55;1.13;;;16.90;99.90;;;;;;4979265;28;20060;-72
2023/07/03 08:58:18;;;;;;;4.97;0.88;;;16.80;99.90;;;;;;4996828;28;20083;-70
2023/07/03 09:01:08;;;;;;;0.68;0.65;;;16.80;99.90;;;;;;4988499;28;20076;-70
2023/07/03 09:03:49;;;;;;;5.07;0.77;;;16.80;99.90;;;;;;4977042;28;20112;-71
2023/07/03 09:06:20;;;;;;;3.63;1.58;;;16.80;99.90;;;;;;4985528;28;20053;-75
2023/07/03 09:09:14;;;;;;;2.35;0.57;;;16.80;99.90;;;;;;4988133;28;20048;-70
2023/07/03 09:11:45;;;;;;;0.22;0.22;;;16.80;99.90;;;;;;4992315;28;20076;-70
2023/07/03 09:14:18;;;;;;;6.25;0.98;;;16.90;99.90;;;;;;5026467;28;20073;-71
2023/07/03 09:16:46;;;;;;;1.83;0.75;;;17.00;99.90;;;;;;5017564;28;20496;-70
2023/07/03 09:19:25;;;;;;;6.45;1.05;;;17.00;99.90;;;;;;5000142;28;20515;-72
2023/07/03 09:21:55;;;;;;;3.50;0.95;;;17.10;99.90;;;;;;5006925;28;20049;-72
2023/07/03 09:24:33;;;;;;;0.98;0.88;;;17.10;99.90;;;;;;5003287;28;20099;-71
2023/07/03 09:27:24;;;;;;;2.05;1.00;;;17.10;99.90;;;;;;4989978;28;20048;-70
2023/07/03 09:29:51;;;;;;;1.95;0.65;;;17.10;99.90;;;;;;4996631;28;20053;-72
2023/07/03 09:32:31;;;;;;;3.40;1.52;;;17.00;99.90;;;;;;5007000;28;20049;-71
2023/07/03 09:35:15;;;;;;;4.43;0.80;;;17.00;99.90;;;;;;4991097;28;20129;-71
2023/07/03 09:37:48;;;;;;;4.25;1.10;;;17.00;99.90;;;;;;5006092;28;20477;-70
2023/07/03 09:40:21;;;;;;;2.92;0.68;;;17.00;99.90;;;;;;5007067;28;20500;-79
2023/07/03 09:42:47;;;;;;;0.98;0.88;;;17.10;99.90;;;;;;5004790;28;20056;-76
2023/07/03 09:45:19;;;;;;;4.28;1.55;;;17.20;99.90;;;;;;5024851;28;20030;-78
2023/07/03 09:48:00;;;;;;;0.70;0.50;;;17.20;99.90;;;;;;4998067;28;20053;-71
2023/07/03 09:50:34;;;;;;;3.50;0.65;;;17.20;99.90;;;;;;5006975;28;20189;-72
2023/07/03 09:53:02;;;;;;;3.70;1.13;;;17.30;99.90;;;;;;5008203;28;20408;-74
2023/07/03 09:55:28;;;;;;;1.52;0.55;;;17.30;99.90;;;;;;5009241;28;20116;-71
2023/07/03 09:57:54;;;;;;;3.50;1.08;;;17.20;99.90;;;;;;5026632;28;20244;-71
2023/07/03 10:00:23;;;;;;;5.30;0.90;;;17.20;99.90;;;;;;5026401;28;20033;-71
2023/07/03 10:02:56;;;;;;;2.85;0.50;;;17.30;99.90;;;;;;5008698;28;20052;-71
2023/07/03 10:05:31;;;;;;;4.97;0.80;;;17.20;99.90;;;;;;5007353;28;20037;-71
2023/07/03 10:08:01;;;;;;;1.10;0.70;;;17.20;99.90;;;;;;5025836;28;20408;-72
2023/07/03 10:10:29;;;;;;;2.72;0.95;;;17.20;99.90;;;;;;5009089;28;20045;-72
2023/07/03 10:12:55;;;;;;;6.18;0.60;;;17.20;99.90;;;;;;5025263;28;20030;-72
2023/07/03 10:15:26;;;;;;;1.20;0.68;;;17.30;99.90;;;;;;5025523;28;20095;-72
2023/07/03 10:17:59;;;;;;;0.70;0.70;;;17.30;99.90;;;;;;5025304;28;20166;-71
2023/07/03 10:20:32;;;;;;;1.10;0.68;;;17.40;99.90;;;;;;4997488;28;20081;-72
2023/07/03 10:22:59;;;;;;;2.17;0.60;;;17.50;99.90;;;;;;4997342;28;20058;-72
2023/07/03 10:25:31;;;;;;;1.80;0.77;;;17.50;99.90;;;;;;5000915;28;20052;-72
2023/07/03 10:28:02;;;;;;;1.63;0.57;;;17.60;99.90;;;;;;5008079;28;20037;-71
2023/07/03 10:30:32;;;;;;;1.25;0.55;;;17.70;99.90;;;;;;5011981;28;20041;-70
2023/07/03 10:32:59;;;;;;;1.98;1.05;;;17.80;99.90;;;;;;5026228;28;20064;-70
2023/07/03 10:35:32;;;;;;;5.88;1.27;;;17.80;99.90;;;;;;5026267;28;20499;-71
2023/07/03 10:38:20;;;;;;;1.17;0.80;;;17.80;99.90;;;;;;5004433;28;20053;-70
2023/07/03 10:41:24;;;;;;;1.73;0.65;;;17.80;99.90;;;;;;5004612;28;20057;-70
2023/07/03 10:43:55;;;;;;;2.58;0.50;;;17.70;99.90;;;;;;5007716;28;20057;-75
2023/07/03 10:46:33;;;;;;;1.10;0.60;;;17.90;99.90;;;;;;5003887;28;20033;-75
2023/07/03 10:49:04;;;;;;;1.65;0.30;;;17.90;99.90;;;;;;5010087;28;20052;-71
2023/07/03 10:51:41;;;;;;;1.38;0.60;;;17.90;99.90;;;;;;5002712;28;20044;-72
2023/07/03 10:54:34;;;;;;;1.00;0.90;;;17.90;99.90;;;;;;5024026;28;20041;-71
2023/07/03 10:57:06;;;;;;;1.10;0.63;;;17.90;99.90;;;;;;5018344;28;20136;-71
2023/07/03 10:59:38;;;;;;;3.45;0.80;;;18.00;99.90;;;;;;4991656;28;20045;-70
2023/07/03 11:02:26;;;;;;;3.30;0.55;;;18.00;99.90;;;;;;5009092;28;20392;-71
2023/07/03 11:05:13;;;;;;;2.42;0.50;;;17.90;99.90;;;;;;4982056;28;20252;-71
2023/07/03 11:08:04;;;;;;;3.58;0.60;;;17.90;99.90;;;;;;5013322;28;20057;-71
2023/07/03 11:10:40;;;;;;;2.85;0.60;;;17.90;99.90;;;;;;5011804;28;20081;-72
2023/07/03 11:13:37;;;;;;;3.60;0.93;;;18.00;99.90;;;;;;4997230;28;20049;-72
2023/07/03 11:16:12;;;;;;;3.15;0.70;;;18.10;99.90;;;;;;4990416;28;20038;-71
2023/07/03 11:19:04;;;;;;;3.40;1.15;;;18.20;99.90;;;;;;4997822;28;20369;-71
2023/07/03 11:21:47;;;;;;;2.60;0.70;;;18.20;99.90;;;;;;5003377;28;20611;-75
2023/07/03 11:24:30;;;;;;;1.13;0.50;;;18.20;99.90;;;;;;5004852;28;20045;-72
2023/07/03 11:27:04;;;;;;;1.35;0.40;;;18.20;99.90;;;;;;4979133;28;20042;-72
2023/07/03 11:29:29;;;;;;;5.40;0.85;;;18.20;99.90;;;;;;4974588;28;20049;-74
2023/07/03 11:31:56;;;;;;;3.10;0.57;;;18.20;99.90;;;;;;4999134;28;20457;-71
2023/07/03 11:34:23;;;;;;;1.15;0.52;;;18.40;99.90;;;;;;4999705;28;20555;-73
2023/07/03 11:36:52;;;;;;;1.55;0.60;;;18.40;99.90;;;;;;5025189;28;20045;-73
2023/07/03 11:39:24;;;;;;;7.05;0.77;;;18.40;99.90;;;;;;5003575;28;20105;-74
2023/07/03 11:42:01;;;;;;;3.00;0.80;;;18.40;99.90;;;;;;5022961;28;20334;-71
2023/07/03 11:44:27;;;;;;;4.88;0.75;;;18.60;99.90;;;;;;4974126;28;20348;-72
2023/07/03 11:46:55;;;;;;;3.42;0.90;;;18.70;99.90;;;;;;4979509;28;20051;-71
2023/07/03 11:49:26;;;;;;;3.55;1.02;;;18.70;99.90;;;;;;4964700;28;20038;-72
2023/07/03 11:51:57;;;;;;;0.75;0.68;;;18.60;99.90;;;;;;4965953;28;20128;-71
2023/07/03 11:54:27;;;;;;;2.35;0.55;;;18.60;99.90;;;;;;4963443;28;20042;-71
2023/07/03 11:57:03;;;;;;;1.00;0.50;;;18.60;99.90;;;;;;4964288;28;20065;-71
2023/07/03 11:59:41;;;;;;;3.50;0.60;;;18.60;99.90;;;;;;4951561;28;20363;-71
2023/07/03 12:02:18;;;;;;;4.22;1.05;;;18.50;99.90;;;;;;4974840;28;20038;-71
2023/07/03 12:04:47;;;;;;;1.02;0.50;;;18.50;99.90;;;;;;4963196;28;20615;-72
2023/07/03 12:07:19;;;;;;;2.30;0.73;;;18.40;99.90;;;;;;4962117;28;20505;-69
2023/07/03 12:09:46;;;;;;;3.58;0.88;;;18.40;99.90;;;;;;4965241;28;20043;-71
2023/07/03 12:12:16;;;;;;;4.47;0.50;;;18.40;99.90;;;;;;4965681;28;20068;-70
2023/07/03 12:14:44;;;;;;;3.33;0.82;;;18.40;99.90;;;;;;4965648;28;20105;-72
2023/07/03 12:17:30;;;;;;;3.20;0.73;;;18.30;99.90;;;;;;4962757;28;20130;-71
2023/07/03 12:20:04;;;;;;;4.03;0.70;;;18.40;99.90;;;;;;4959569;28;20378;-73
2023/07/03 12:22:30;;;;;;;5.13;0.90;;;18.40;99.90;;;;;;4963766;28;20054;-74
2023/07/03 12:25:04;;;;;;;1.63;0.73;;;18.50;99.90;;;;;;4963777;28;20101;-71
2023/07/03 12:27:29;;;;;;;2.08;0.60;;;18.50;99.90;;;;;;4963503;28;20078;-75
2023/07/03 12:29:55;;;;;;;2.08;0.50;;;18.60;99.90;;;;;;4963079;28;20066;-70
2023/07/03 12:32:30;;;;;;;6.28;1.15;;;18.60;99.90;;;;;;4963605;28;20485;-73
2023/07/03 12:35:14;;;;;;;2.47;1.00;;;18.70;99.90;;;;;;4964331;28;20093;-70
2023/07/03 12:37:45;;;;;;;2.50;0.55;;;18.80;99.90;;;;;;4964241;28;20047;-73
2023/07/03 12:40:13;;;;;;;2.47;0.75;;;18.90;99.90;;;;;;4963786;28;20078;-71
2023/07/03 12:42:39;;;;;;;4.40;0.77;;;18.90;99.90;;;;;;4947256;28;20129;-72
2023/07/03 12:45:13;;;;;;;2.58;0.70;;;18.90;99.90;;;;;;4964421;28;20061;-71
2023/07/03 12:47:39;;;;;;;1.05;0.50;;;18.80;99.90;;;;;;4963347;28;20049;-73
2023/07/03 12:50:05;;;;;;;1.20;0.60;;;18.80;99.90;;;;;;4962841;28;20035;-73
2023/07/03 12:52:33;;;;;;;2.78;0.82;;;18.80;99.90;;;;;;4960770;28;20138;-70
2023/07/03 12:55:03;;;;;;;1.80;0.50;;;18.80;99.90;;;;;;4980556;28;20046;-70
2023/07/03 12:57:31;;;;;;;1.90;0.50;;;18.70;99.90;;;;;;4962611;28;20046;-71
2023/07/03 12:59:58;;;;;;;1.65;0.57;;;18.70;99.90;;;;;;4964998;28;20512;-70
2023/07/03 13:02:28;;;;;;;4.13;0.55;;;18.70;99.90;;;;;;4964465;28;20413;-72